Time;durP1;ratioP1;P1;durP2;ratioP2;P2;SDS_P1;SDS_P2;PMS_P1;PMS_P2;Temp;Humidity;BMP_temperature;BMP_pressure;BME280_temperature;BME280_humidity;BME280_pressure;Samples;Min_cycle;Max_cycle;Signal;HPM_P1;HPM_P2
2021/10/31 00:01:54;;;;;;;20.92;11.05;;;;;;;7.88;97.42;100433.78;5154617;27;20091;-53
2021/10/31 00:04:20;;;;;;;15.93;8.27;;;;;;;7.81;97.12;100427.81;5135462;27;20034;-56
2021/10/31 00:06:46;;;;;;;18.58;10.00;;;;;;;7.84;96.73;100435.56;5154750;27;20303;-53
2021/10/31 00:09:11;;;;;;;16.60;9.93;;;;;;;7.86;96.83;100432.91;5154212;27;20080;-51
2021/10/31 00:11:37;;;;;;;21.60;10.20;;;;;;;7.84;96.43;100440.72;5154599;27;20027;-55
2021/10/31 00:14:04;;;;;;;20.25;11.23;;;;;;;7.84;95.99;100445.91;5141945;27;20050;-55
2021/10/31 00:16:30;;;;;;;19.00;10.95;;;;;;;7.86;96.04;100453.63;5135952;27;20053;-55
2021/10/31 00:18:56;;;;;;;18.08;10.93;;;;;;;7.85;95.74;100457.13;5136111;27;20569;-54
2021/10/31 00:21:23;;;;;;;18.38;10.07;;;;;;;7.86;95.31;100448.47;5118633;27;20038;-56
2021/10/31 00:23:49;;;;;;;16.60;10.30;;;;;;;7.83;95.07;100446.78;5144192;27;20039;-52
2021/10/31 00:26:16;;;;;;;18.33;9.30;;;;;;;7.82;94.82;100452.81;5133464;27;20120;-54
2021/10/31 00:28:42;;;;;;;16.13;9.25;;;;;;;7.81;94.12;100452.81;5115317;27;20038;-52
2021/10/31 00:31:09;;;;;;;20.27;11.35;;;;;;;7.83;93.95;100451.09;5133550;27;20406;-55
2021/10/31 00:33:35;;;;;;;17.52;9.38;;;;;;;7.83;93.99;100444.19;5139952;27;20038;-53
2021/10/31 00:36:01;;;;;;;18.35;9.40;;;;;;;7.80;93.75;100438.19;5154056;27;20504;-49
2021/10/31 00:38:27;;;;;;;19.00;10.18;;;;;;;7.82;93.69;100439.03;5154137;27;20068;-49
2021/10/31 00:40:52;;;;;;;17.67;9.88;;;;;;;7.80;93.50;100433.03;5154029;27;20038;-54
2021/10/31 00:43:18;;;;;;;15.80;9.05;;;;;;;7.78;92.92;100427.00;5130307;27;20047;-55
2021/10/31 00:45:45;;;;;;;15.00;8.95;;;;;;;7.75;92.77;100425.28;5134314;27;20065;-54
2021/10/31 00:48:10;;;;;;;15.95;9.18;;;;;;;7.75;92.40;100419.25;5132919;27;20425;-52
2021/10/31 00:50:36;;;;;;;15.30;8.63;;;;;;;7.74;92.13;100417.56;5114705;27;20041;-55
2021/10/31 00:53:03;;;;;;;13.73;8.50;;;;;;;7.70;92.04;100410.66;5114545;27;20046;-54
2021/10/31 00:55:29;;;;;;;15.10;8.68;;;;;;;7.69;91.65;100417.59;5153491;27;20043;-51
2021/10/31 00:57:57;;;;;;;15.15;9.07;;;;;;;7.71;91.60;100413.25;5135386;27;20043;-54
2021/10/31 01:00:23;;;;;;;16.45;9.63;;;;;;;7.67;91.30;100411.56;5153658;27;20038;-55
2021/10/31 01:02:49;;;;;;;11.93;7.13;;;;;;;7.66;90.69;100407.25;5153656;27;20031;-51
2021/10/31 01:05:19;;;;;;;13.40;9.13;;;;;;;7.64;90.69;100415.03;5116863;27;20510;-55
2021/10/31 01:08:09;;;;;;;15.52;8.35;;;;;;;7.63;90.68;100410.75;5132599;27;20430;-56
2021/10/31 01:10:56;;;;;;;15.50;9.40;;;;;;;7.61;90.74;100406.47;5134038;27;20046;-55
2021/10/31 01:13:38;;;;;;;13.07;7.35;;;;;;;7.58;90.46;100403.91;5133132;27;20042;-52
2021/10/31 01:16:30;;;;;;;14.50;8.38;;;;;;;7.53;90.13;100398.81;5113800;27;20071;-53
2021/10/31 01:19:14;;;;;;;12.32;7.00;;;;;;;7.51;90.25;100390.19;5097300;27;20551;-53
2021/10/31 01:22:01;;;;;;;16.40;9.60;;;;;;;7.41;90.12;100380.81;5132413;27;20520;-54
2021/10/31 01:24:36;;;;;;;12.38;7.70;;;;;;;7.47;90.12;100385.91;5124391;27;20153;-55
2021/10/31 01:27:29;;;;;;;16.25;8.85;;;;;;;7.46;90.54;100393.69;5134688;27;20039;-54
2021/10/31 01:30:29;;;;;;;14.57;8.57;;;;;;;7.42;90.30;100382.53;5134325;27;20055;-52
2021/10/31 01:33:06;;;;;;;15.38;8.80;;;;;;;7.41;89.92;100382.53;5153184;27;20057;-53
2021/10/31 01:36:09;;;;;;;13.20;8.65;;;;;;;7.38;89.78;100390.34;5148106;27;20540;-56
2021/10/31 01:38:45;;;;;;;16.33;8.68;;;;;;;7.34;89.94;100373.13;5132104;27;20547;-56
2021/10/31 01:41:33;;;;;;;15.63;9.40;;;;;;;7.29;90.00;100375.75;5113896;27;20104;-56
2021/10/31 01:44:13;;;;;;;16.40;9.38;;;;;;;7.27;89.93;100364.59;5139161;27;20462;-55
2021/10/31 01:46:51;;;;;;;16.10;9.82;;;;;;;7.26;89.91;100373.19;5152002;27;20035;-56
2021/10/31 01:49:36;;;;;;;15.37;8.33;;;;;;;7.25;89.76;100366.31;5134124;27;20043;-55
2021/10/31 01:52:11;;;;;;;14.15;8.65;;;;;;;7.24;89.47;100362.00;5152757;27;20298;-53
2021/10/31 01:55:02;;;;;;;14.32;7.40;;;;;;;7.22;89.34;100371.53;5128439;27;20037;-56
2021/10/31 01:57:29;;;;;;;14.50;8.32;;;;;;;7.17;88.94;100356.03;5152634;27;20050;-52
2021/10/31 02:00:13;;;;;;;15.70;9.05;;;;;;;7.14;89.21;100345.72;5134045;27;20042;-52
2021/10/31 02:02:42;;;;;;;13.88;8.25;;;;;;;7.15;89.04;100349.16;5133940;27;20050;-53
2021/10/31 02:05:09;;;;;;;15.20;8.10;;;;;;;7.11;88.98;100348.34;5117436;27;20043;-54
2021/10/31 02:07:40;;;;;;;16.73;9.43;;;;;;;7.00;88.92;100341.56;5131704;27;20081;-49
2021/10/31 02:10:07;;;;;;;18.48;9.77;;;;;;;7.09;88.49;100349.22;5133689;27;20042;-55
2021/10/31 02:12:34;;;;;;;12.05;7.03;;;;;;;7.08;88.16;100342.34;5152481;27;20038;-53
2021/10/31 02:15:00;;;;;;;12.57;7.18;;;;;;;6.98;87.96;100332.97;5103094;27;20041;-54
2021/10/31 02:17:27;;;;;;;13.55;8.30;;;;;;;6.96;87.48;100322.63;5133406;27;20038;-53
2021/10/31 02:19:53;;;;;;;10.55;6.47;;;;;;;7.02;86.96;100345.84;5133648;27;20034;-53
2021/10/31 02:22:25;;;;;;;16.80;8.35;;;;;;;6.99;87.20;100335.53;5133798;27;20046;-51
2021/10/31 02:24:51;;;;;;;13.75;8.23;;;;;;;7.04;86.68;100340.66;5150257;27;20086;-50
2021/10/31 02:27:20;;;;;;;14.90;8.25;;;;;;;7.03;86.28;100344.97;5151919;27;20488;-53
2021/10/31 02:29:48;;;;;;;11.60;7.22;;;;;;;7.03;86.03;100351.88;5133505;27;20057;-53
2021/10/31 02:32:15;;;;;;;12.43;7.40;;;;;;;7.04;85.79;100341.53;5152042;27;20035;-52
2021/10/31 02:34:41;;;;;;;15.25;8.27;;;;;;;7.01;85.60;100341.56;5143844;27;20280;-49
2021/10/31 02:37:06;;;;;;;14.02;7.75;;;;;;;7.03;84.96;100344.09;5131222;27;20035;-54
2021/10/31 02:39:35;;;;;;;10.68;6.55;;;;;;;7.04;84.65;100338.06;5112897;27;20078;-56
2021/10/31 02:42:05;;;;;;;16.60;9.05;;;;;;;7.04;84.38;100341.53;5130799;27;20138;-57
2021/10/31 02:44:30;;;;;;;14.55;8.30;;;;;;;7.06;84.15;100349.28;5118068;27;20034;-56
2021/10/31 02:46:57;;;;;;;12.02;6.68;;;;;;;7.07;83.61;100346.66;5151316;27;20171;-52
2021/10/31 02:49:23;;;;;;;15.48;8.20;;;;;;;7.08;83.50;100339.75;5133350;27;20058;-53
2021/10/31 02:51:52;;;;;;;14.40;7.15;;;;;;;7.08;83.13;100339.75;5151439;27;20501;-52
2021/10/31 02:54:51;;;;;;;11.50;6.97;;;;;;;7.09;82.55;100341.47;5128286;27;20057;-56
2021/10/31 02:57:28;;;;;;;14.00;7.35;;;;;;;7.03;82.72;100323.44;5130617;27;20054;-54
2021/10/31 02:59:56;;;;;;;12.30;8.10;;;;;;;7.13;82.73;100337.97;5077859;27;20043;-55
2021/10/31 03:02:26;;;;;;;16.02;7.88;;;;;;;7.12;82.09;100331.94;5078529;28;20108;-54
2021/10/31 03:04:52;;;;;;;9.10;5.60;;;;;;;7.07;81.66;100317.34;5136274;27;20031;-54
2021/10/31 03:07:18;;;;;;;12.32;6.80;;;;;;;7.12;81.57;100324.19;5132691;27;20457;-55
2021/10/31 03:09:47;;;;;;;12.98;6.78;;;;;;;7.05;81.19;100316.53;5115749;27;20075;-55
2021/10/31 03:12:13;;;;;;;;;;;;;;;7.11;81.04;100327.66;5151795;27;20042;-54
2021/10/31 03:14:39;;;;;;;11.63;6.85;;;;;;;7.06;80.99;100320.84;5147619;27;19915;-53
2021/10/31 03:17:06;;;;;;;11.20;6.90;;;;;;;7.08;80.89;100327.69;5150110;27;20421;-52
2021/10/31 03:19:32;;;;;;;12.32;7.00;;;;;;;7.08;80.49;100326.81;5151350;27;20565;-51
2021/10/31 03:21:59;;;;;;;12.25;6.50;;;;;;;7.07;80.30;100327.69;5151368;27;20046;-52
2021/10/31 03:24:25;;;;;;;12.40;6.95;;;;;;;7.08;80.21;100321.66;5149582;27;20103;-52
2021/10/31 03:26:51;;;;;;;9.32;4.82;;;;;;;7.07;79.87;100323.38;5130509;28;20117;-49
2021/10/31 03:29:20;;;;;;;8.32;5.05;;;;;;;7.02;79.32;100306.19;5112313;28;20064;-52
2021/10/31 03:31:46;;;;;;;9.88;5.35;;;;;;;7.10;78.84;100328.53;5124808;27;20494;-52
2021/10/31 03:34:12;;;;;;;12.88;7.28;;;;;;;6.94;79.21;100297.69;5115303;27;20034;-52
2021/10/31 03:36:38;;;;;;;12.40;7.60;;;;;;;6.97;79.21;100295.03;5150514;27;20068;-52
2021/10/31 03:39:07;;;;;;;9.77;6.45;;;;;;;7.09;79.17;100311.31;5151182;27;20458;-57
2021/10/31 03:41:33;;;;;;;13.63;7.65;;;;;;;7.08;79.66;100316.47;5132520;27;20039;-52
2021/10/31 03:43:58;;;;;;;10.00;6.55;;;;;;;7.06;79.48;100318.25;5150888;27;20034;-56
2021/10/31 03:46:24;;;;;;;12.80;7.65;;;;;;;7.07;79.50;100312.19;5135653;27;20130;-54
2021/10/31 03:48:50;;;;;;;12.93;7.07;;;;;;;7.04;79.16;100307.06;5130112;28;20039;-54
2021/10/31 03:51:16;;;;;;;13.07;7.72;;;;;;;7.04;79.37;100309.63;5130424;27;20039;-52
2021/10/31 03:53:41;;;;;;;12.65;7.53;;;;;;;6.95;79.61;100294.22;5130285;28;20488;-51
2021/10/31 03:56:07;;;;;;;10.18;5.85;;;;;;;7.02;79.16;100306.19;5142383;27;20141;-50
2021/10/31 03:58:33;;;;;;;12.00;6.07;;;;;;;7.01;79.47;100302.78;5150765;27;20099;-52
2021/10/31 04:01:00;;;;;;;10.88;5.90;;;;;;;6.97;79.52;100307.97;5150764;27;20045;-52
2021/10/31 04:03:27;;;;;;;16.10;7.32;;;;;;;6.94;79.47;100303.72;5150844;27;20091;-53
2021/10/31 04:05:53;;;;;;;13.18;7.68;;;;;;;6.94;79.56;100297.69;5122018;28;20043;-51
2021/10/31 04:08:18;;;;;;;8.63;5.30;;;;;;;6.91;79.51;100288.22;5129645;27;20051;-50
2021/10/31 04:10:44;;;;;;;11.48;6.68;;;;;;;6.93;79.61;100288.19;5135106;27;20505;-52
2021/10/31 04:13:10;;;;;;;9.95;6.20;;;;;;;6.91;79.42;100290.78;5142742;27;20035;-47
2021/10/31 04:15:36;;;;;;;14.23;7.82;;;;;;;6.92;79.29;100289.06;5115572;27;20031;-50
2021/10/31 04:18:02;;;;;;;12.15;6.95;;;;;;;6.83;79.43;100277.09;5115211;27;20130;-49
2021/10/31 04:20:28;;;;;;;13.40;7.32;;;;;;;6.87;79.92;100291.69;5144652;27;20095;-52
2021/10/31 04:22:54;;;;;;;12.82;7.38;;;;;;;6.86;79.59;100283.94;5115982;27;20114;-50
2021/10/31 04:25:19;;;;;;;12.45;5.55;;;;;;;6.81;79.94;100287.44;5129594;27;20046;-52
2021/10/31 04:27:45;;;;;;;14.23;6.75;;;;;;;6.79;80.04;100299.53;5114300;27;20532;-50
2021/10/31 04:30:12;;;;;;;18.60;7.60;;;;;;;6.77;80.11;100296.09;5133173;27;20039;-51
2021/10/31 04:32:39;;;;;;;13.20;7.28;;;;;;;6.71;80.42;100295.28;5138040;27;20149;-46
2021/10/31 04:35:05;;;;;;;12.18;7.43;;;;;;;6.74;80.88;100292.69;5118335;27;20532;-45
2021/10/31 04:37:33;;;;;;;13.23;6.82;;;;;;;6.73;80.58;100296.16;5154010;27;20038;-46
2021/10/31 04:40:00;;;;;;;9.02;5.43;;;;;;;6.74;80.08;100308.22;5135340;27;20073;-45
2021/10/31 04:42:31;;;;;;;14.13;8.30;;;;;;;6.66;80.55;100292.75;5134358;27;20046;-44
2021/10/31 04:44:56;;;;;;;15.80;8.52;;;;;;;6.66;80.01;100284.16;5130455;27;20046;-44
2021/10/31 04:47:22;;;;;;;13.85;7.10;;;;;;;6.69;80.18;100304.81;5117643;27;20046;-42
2021/10/31 04:49:48;;;;;;;13.10;6.45;;;;;;;6.67;80.54;100294.47;5134690;27;20069;-48
2021/10/31 04:52:14;;;;;;;9.30;5.63;;;;;;;6.59;80.44;100287.66;5148411;27;20163;-45
2021/10/31 04:54:40;;;;;;;10.10;6.22;;;;;;;6.65;80.66;100295.34;5136612;27;20042;-44
2021/10/31 04:57:06;;;;;;;12.70;6.82;;;;;;;6.65;80.25;100288.44;5136460;27;20046;-47
2021/10/31 04:59:32;;;;;;;11.25;5.53;;;;;;;6.63;80.49;100290.22;5117953;27;20034;-46
2021/10/31 05:01:58;;;;;;;11.65;7.03;;;;;;;6.53;80.00;100274.81;5143228;27;20035;-46
2021/10/31 05:04:24;;;;;;;14.18;8.35;;;;;;;6.66;80.11;100297.06;5116765;27;20054;-44
2021/10/31 05:06:49;;;;;;;14.23;7.93;;;;;;;6.77;80.03;100305.59;5118965;27;20042;-46
2021/10/31 05:09:15;;;;;;;15.30;8.30;;;;;;;7.04;78.62;100301.88;5127118;27;20055;-44
2021/10/31 05:11:41;;;;;;;15.00;7.05;;;;;;;7.18;77.66;100294.81;5132937;27;20502;-43
2021/10/31 05:14:07;;;;;;;10.43;6.20;;;;;;;7.13;76.93;100281.94;5134172;27;20422;-46
2021/10/31 05:16:35;;;;;;;14.43;7.65;;;;;;;7.37;76.25;100301.53;5129666;27;20045;-44
2021/10/31 05:19:02;;;;;;;13.65;8.30;;;;;;;7.66;74.53;100272.69;5113319;27;20118;-43
2021/10/31 05:21:28;;;;;;;16.25;7.63;;;;;;;7.92;72.73;100280.09;5101741;27;20580;-43
2021/10/31 05:23:53;;;;;;;14.32;6.25;;;;;;;7.92;72.94;100295.63;5149636;27;20137;-47
2021/10/31 05:26:19;;;;;;;17.23;7.72;;;;;;;8.00;72.68;100299.00;5147327;27;20039;-42
2021/10/31 05:28:45;;;;;;;14.32;8.00;;;;;;;8.34;70.98;100292.47;5124868;27;20046;-45
2021/10/31 05:31:11;;;;;;;9.43;5.50;;;;;;;8.60;69.78;100298.94;5133442;27;20035;-47
2021/10/31 05:33:37;;;;;;;13.95;7.55;;;;;;;8.95;68.12;100282.81;5111966;27;20590;-45
2021/10/31 05:36:04;;;;;;;10.65;6.93;;;;;;;9.33;66.83;100298.50;5099207;27;20035;-50
2021/10/31 05:38:30;;;;;;;13.02;7.50;;;;;;;9.47;65.75;100288.72;5132208;27;20058;-45
2021/10/31 05:40:55;;;;;;;14.93;7.78;;;;;;;9.49;64.60;100279.13;5132982;27;20479;-48
2021/10/31 05:43:21;;;;;;;12.57;7.85;;;;;;;10.01;64.02;100278.88;5141826;27;20050;-46
2021/10/31 05:45:47;;;;;;;15.80;8.25;;;;;;;10.25;62.38;100254.13;5134310;27;20047;-47
2021/10/31 05:48:13;;;;;;;16.35;7.85;;;;;;;10.62;61.51;100285.28;5114743;27;20031;-47
2021/10/31 05:50:40;;;;;;;15.85;8.35;;;;;;;10.79;60.75;100272.66;5131514;27;20030;-49
2021/10/31 05:53:06;;;;;;;16.40;8.52;;;;;;;11.05;59.85;100275.44;5133241;27;20041;-46
2021/10/31 05:55:32;;;;;;;14.15;7.38;;;;;;;11.51;57.98;100276.78;5130535;27;20129;-47
2021/10/31 05:57:58;;;;;;;16.77;8.05;;;;;;;11.82;56.98;100282.00;5133384;27;20045;-43
2021/10/31 06:00:24;;;;;;;18.05;7.72;;;;;;;11.92;56.46;100273.00;5099161;27;20484;-46
2021/10/31 06:02:50;;;;;;;14.57;9.00;;;;;;;12.04;56.10;100256.97;5131841;27;20051;-48
2021/10/31 06:05:17;;;;;;;15.73;8.85;;;;;;;12.31;55.38;100250.88;5130205;27;20467;-44
2021/10/31 06:07:43;;;;;;;14.30;8.00;;;;;;;12.88;53.49;100280.28;5113578;27;20078;-46
2021/10/31 06:10:10;;;;;;;13.40;8.02;;;;;;;13.04;52.78;100287.53;5138594;27;20057;-46
2021/10/31 06:12:37;;;;;;;13.20;7.55;;;;;;;13.19;51.90;100294.00;5132318;27;20034;-46
2021/10/31 06:15:03;;;;;;;14.80;8.90;;;;;;;13.56;51.45;100283.09;5129682;27;20066;-47
2021/10/31 06:17:29;;;;;;;15.90;8.32;;;;;;;13.78;50.79;100272.69;5110980;27;20038;-46
2021/10/31 06:19:57;;;;;;;13.55;8.15;;;;;;;13.61;50.36;100286.38;5134799;27;20045;-44
2021/10/31 06:22:22;;;;;;;15.77;8.40;;;;;;;13.76;50.54;100288.47;5150095;27;20092;-46
2021/10/31 06:24:48;;;;;;;19.67;9.23;;;;;;;13.85;50.17;100258.50;5133213;27;20034;-46
2021/10/31 06:27:14;;;;;;;15.52;9.05;;;;;;;14.08;49.07;100276.72;5124148;27;20467;-46
2021/10/31 06:29:39;;;;;;;16.58;9.48;;;;;;;14.32;48.83;100281.00;5107783;27;20398;-47
2021/10/31 06:32:06;;;;;;;16.60;8.30;;;;;;;14.69;47.13;100264.69;5130680;27;20060;-45
2021/10/31 06:34:31;;;;;;;19.08;9.45;;;;;;;14.89;47.23;100270.84;5112564;27;20042;-46
2021/10/31 06:36:57;;;;;;;16.33;9.57;;;;;;;15.39;46.41;100273.88;5144521;27;20050;-44
2021/10/31 06:39:23;;;;;;;14.73;8.25;;;;;;;15.31;45.08;100284.69;5108810;27;20045;-46
2021/10/31 06:41:49;;;;;;;18.75;9.20;;;;;;;15.10;46.21;100285.63;5132174;27;20082;-47
2021/10/31 06:44:15;;;;;;;15.70;9.98;;;;;;;15.19;46.15;100278.22;5117222;27;20035;-46
2021/10/31 06:46:40;;;;;;;16.83;9.93;;;;;;;15.60;45.23;100286.88;5121671;27;20030;-47
2021/10/31 06:49:08;;;;;;;16.08;9.45;;;;;;;15.66;44.46;100291.00;5119994;27;20679;-45
2021/10/31 06:51:34;;;;;;;18.05;9.75;;;;;;;15.59;44.30;100289.59;5121463;27;20403;-47
2021/10/31 06:54:00;;;;;;;15.93;9.00;;;;;;;15.72;43.88;100282.88;5131691;27;20038;-47
2021/10/31 06:56:26;;;;;;;16.52;10.02;;;;;;;15.35;44.45;100267.91;5132360;27;20043;-47
2021/10/31 06:58:52;;;;;;;15.50;9.25;;;;;;;15.39;44.97;100285.19;5138214;27;20035;-53
2021/10/31 07:01:18;;;;;;;16.20;9.32;;;;;;;15.52;44.43;100286.41;5139372;27;20039;-48
2021/10/31 07:03:47;;;;;;;19.23;10.65;;;;;;;15.22;45.10;100277.25;5140585;27;20037;-49
2021/10/31 07:06:15;;;;;;;16.17;8.55;;;;;;;15.22;44.96;100272.00;5121175;27;20080;-49
2021/10/31 07:08:42;;;;;;;21.02;10.75;;;;;;;15.50;44.38;100275.09;5117783;27;20051;-47
2021/10/31 07:11:08;;;;;;;19.75;9.95;;;;;;;15.77;43.83;100280.03;5122619;27;20342;-48
2021/10/31 07:13:34;;;;;;;13.18;8.48;;;;;;;15.54;44.30;100289.81;5138965;27;20488;-46
2021/10/31 07:16:00;;;;;;;16.85;8.82;;;;;;;15.11;44.55;100282.97;5140189;27;20042;-48
2021/10/31 07:18:25;;;;;;;16.10;8.82;;;;;;;15.53;43.68;100272.38;5136310;27;20536;-47
2021/10/31 07:20:51;;;;;;;20.42;9.70;;;;;;;15.66;43.60;100291.00;5134617;27;20043;-52
2021/10/31 07:23:17;;;;;;;16.10;9.27;;;;;;;15.27;43.96;100298.84;5121881;27;20399;-47
2021/10/31 07:25:43;;;;;;;17.65;9.45;;;;;;;15.45;43.94;100281.47;5103121;27;20043;-45
2021/10/31 07:28:09;;;;;;;18.80;9.80;;;;;;;15.90;43.39;100282.03;5141041;27;20527;-48
2021/10/31 07:30:36;;;;;;;14.90;8.95;;;;;;;15.61;43.12;100283.34;5096920;27;20038;-50
2021/10/31 07:33:02;;;;;;;16.95;9.00;;;;;;;15.39;43.69;100287.81;5138123;27;20061;-46
2021/10/31 07:35:29;;;;;;;16.00;9.02;;;;;;;15.45;43.77;100284.94;5140117;27;20042;-46
2021/10/31 07:37:55;;;;;;;16.95;7.97;;;;;;;15.92;42.98;100281.94;5139839;27;20043;-46
2021/10/31 07:40:22;;;;;;;15.32;8.18;;;;;;;15.99;42.64;100275.50;5109762;27;20134;-45
2021/10/31 07:42:48;;;;;;;20.75;10.32;;;;;;;16.33;41.99;100277.38;5120568;27;20133;-48
2021/10/31 07:45:14;;;;;;;15.70;9.10;;;;;;;16.97;40.93;100282.91;5131427;27;20130;-48
2021/10/31 07:47:40;;;;;;;18.52;10.23;;;;;;;16.60;41.01;100285.69;5143467;27;20126;-47
2021/10/31 07:50:07;;;;;;;16.95;9.52;;;;;;;16.43;41.22;100261.06;5143101;27;20034;-47
2021/10/31 07:52:33;;;;;;;15.75;9.73;;;;;;;16.49;41.27;100284.41;5144226;27;20026;-47
2021/10/31 07:55:01;;;;;;;14.70;8.77;;;;;;;16.16;41.67;100298.31;5136278;27;20413;-49
2021/10/31 07:57:30;;;;;;;15.77;8.43;;;;;;;15.57;42.81;100292.28;5123985;27;20045;-45
2021/10/31 07:59:56;;;;;;;19.15;10.38;;;;;;;15.10;43.87;100283.00;5123697;27;20047;-45
2021/10/31 08:02:21;;;;;;;17.10;9.27;;;;;;;15.41;43.46;100269.41;5143349;27;20049;-44
2021/10/31 08:04:47;;;;;;;16.58;9.10;;;;;;;15.95;42.54;100277.44;5143585;27;20039;-49
2021/10/31 08:07:13;;;;;;;16.17;8.95;;;;;;;15.86;42.27;100290.13;5141650;27;20114;-47
2021/10/31 08:09:40;;;;;;;16.65;9.63;;;;;;;15.41;43.16;100280.75;5124912;27;20386;-46
2021/10/31 08:12:09;;;;;;;13.85;8.50;;;;;;;16.27;41.66;100291.63;5129516;27;20080;-47
2021/10/31 08:14:35;;;;;;;;;;;;;;;15.64;42.40;100290.25;5109439;27;20038;-48
2021/10/31 08:17:01;;;;;;;15.15;8.57;;;;;;;14.24;45.47;100301.38;5143193;27;19919;-50
2021/10/31 08:19:27;;;;;;;16.02;8.73;;;;;;;12.68;49.21;100312.28;5131596;27;20129;-49
2021/10/31 08:21:53;;;;;;;14.98;9.27;;;;;;;12.31;50.34;100279.56;5141348;27;20114;-47
2021/10/31 08:24:20;;;;;;;14.07;8.45;;;;;;;12.92;49.52;100302.78;5123536;27;20054;-43
2021/10/31 08:26:46;;;;;;;13.02;7.63;;;;;;;12.82;49.62;100310.09;5142416;27;20042;-48
2021/10/31 08:29:14;;;;;;;16.27;9.20;;;;;;;12.78;50.04;100284.13;5125184;27;20064;-49
2021/10/31 08:31:42;;;;;;;12.45;5.93;;;;;;;12.96;49.28;100322.66;5142037;27;20080;-49
2021/10/31 08:34:08;;;;;;;13.38;7.72;;;;;;;12.27;50.97;100300.56;5124772;27;20553;-45
2021/10/31 08:36:34;;;;;;;13.25;7.38;;;;;;;11.83;51.90;100314.94;5122688;27;20063;-48
2021/10/31 08:39:00;;;;;;;13.93;5.80;;;;;;;11.04;54.66;100302.34;5143377;27;20049;-46
2021/10/31 08:41:27;;;;;;;15.00;7.38;;;;;;;10.57;55.83;100310.53;5130432;27;20027;-48
2021/10/31 08:43:54;;;;;;;16.63;8.07;;;;;;;10.75;55.29;100284.06;5141976;27;20070;-46
2021/10/31 08:46:20;;;;;;;15.55;8.30;;;;;;;11.10;54.98;100310.88;5143017;27;20042;-46
2021/10/31 08:48:47;;;;;;;14.73;8.35;;;;;;;11.27;54.38;100311.31;5126961;27;20034;-45
2021/10/31 08:51:14;;;;;;;13.55;6.25;;;;;;;10.96;55.55;100301.72;5142034;27;21499;-46
2021/10/31 08:53:40;;;;;;;16.38;8.48;;;;;;;10.71;55.94;100313.63;5137283;27;20053;-45
2021/10/31 08:56:10;;;;;;;15.32;8.35;;;;;;;11.71;54.49;100310.06;5135485;27;20034;-44
2021/10/31 08:58:37;;;;;;;19.65;7.35;;;;;;;13.22;50.16;100316.56;5132171;27;20066;-46
2021/10/31 09:01:03;;;;;;;15.73;8.77;;;;;;;14.38;48.01;100314.81;5136537;27;20063;-45
2021/10/31 09:03:28;;;;;;;13.52;7.40;;;;;;;14.61;46.59;100316.47;5113709;27;20067;-47
